Orbital elements of ARIANE 1 DEB
| Launched | 23 December 1979 |
| Flight ended | – |
| Launch site | Europe's Spaceport, Kourou, French Guiana |
| Owner | France |
| NORAD ID | 25837 |
| Date fetched |
Epoch osculation |
Inc. [°] |
Ecc. | RA asc node [hr] |
Arg Peri. [°] |
Mean anom [°] |
Mean motion [rev/day] |
Abs. mag |
| Date fetched |
Epoch osculation |
Inc. [°] |
Ecc. | RA asc node [hr] |
Arg Peri. [°] |
Mean anom [°] |
Mean motion [rev/day] |
Abs. mag |
| 2026 May 08 17:57 | 2026 May 05 05:27:30 | 17.9368 | 0.12934 | 8.7469 | 198.0155 | 266.2290 | 13.01387 | – |
| 2026 May 07 17:58 | 2026 May 05 05:27:30 | 17.9368 | 0.12934 | 8.7469 | 198.0155 | 266.2290 | 13.01387 | – |
| 2026 May 06 17:57 | 2026 May 05 05:27:30 | 17.9368 | 0.12934 | 8.7469 | 198.0155 | 266.2290 | 13.01387 | – |
| 2026 May 05 17:57 | 2026 May 05 05:27:30 | 17.9368 | 0.12934 | 8.7469 | 198.0155 | 266.2290 | 13.01387 | – |
| 2026 May 04 17:57 | 2026 Apr 30 11:02:09 | 17.9332 | 0.12989 | 10.4122 | 151.7419 | 266.2290 | 13.01387 | – |
| 2026 May 03 17:57 | 2026 Apr 30 11:02:09 | 17.9332 | 0.12989 | 10.4122 | 151.7419 | 266.2290 | 13.01387 | – |
| 2026 May 02 17:57 | 2026 Apr 30 11:02:09 | 17.9332 | 0.12989 | 10.4122 | 151.7419 | 266.2290 | 13.01387 | – |
| 2026 May 01 17:56 | 2026 Apr 30 11:02:09 | 17.9332 | 0.12989 | 10.4122 | 151.7419 | 266.2290 | 13.01387 | – |
| 2026 Apr 30 17:56 | 2026 Apr 30 11:02:09 | 17.9332 | 0.12989 | 10.4122 | 151.7419 | 266.2290 | 13.01387 | – |
| 2026 Apr 29 17:57 | 2026 Apr 24 09:34:38 | 17.9299 | 0.13065 | 12.5247 | 93.0573 | 266.2290 | 13.01387 | – |
| 2026 Apr 28 17:56 | 2026 Apr 24 09:34:38 | 17.9299 | 0.13065 | 12.5247 | 93.0573 | 266.2290 | 13.01387 | – |
| 2026 Apr 27 17:58 | 2026 Apr 24 09:34:38 | 17.9299 | 0.13065 | 12.5247 | 93.0573 | 266.2290 | 13.01387 | – |
| 2026 Apr 26 17:58 | 2026 Apr 24 09:34:38 | 17.9299 | 0.13065 | 12.5247 | 93.0573 | 266.2290 | 13.01387 | – |
| 2026 Apr 25 17:58 | 2026 Apr 24 09:34:38 | 17.9299 | 0.13065 | 12.5247 | 93.0573 | 266.2290 | 13.01387 | – |
| 2026 Apr 24 17:59 | 2026 Apr 24 09:34:38 | 17.9299 | 0.13065 | 12.5247 | 93.0573 | 266.2290 | 13.01387 | – |
| 2026 Apr 23 17:57 | 2026 Apr 18 00:42:03 | 17.9333 | 0.13123 | 14.7405 | 31.5050 | 266.2290 | 13.01387 | – |
| 2026 Apr 22 17:57 | 2026 Apr 18 00:42:03 | 17.9333 | 0.13123 | 14.7405 | 31.5050 | 266.2290 | 13.01387 | – |
| 2026 Apr 21 17:57 | 2026 Apr 18 00:42:03 | 17.9333 | 0.13123 | 14.7405 | 31.5050 | 266.2290 | 13.01387 | – |
| 2026 Apr 20 17:57 | 2026 Apr 18 00:42:03 | 17.9333 | 0.13123 | 14.7405 | 31.5050 | 266.2290 | 13.01387 | – |
| 2026 Apr 19 17:58 | 2026 Apr 18 00:42:03 | 17.9333 | 0.13123 | 14.7405 | 31.5050 | 266.2290 | 13.01387 | – |
| 2026 Apr 18 17:56 | 2026 Apr 12 13:04:56 | 17.9389 | 0.13158 | 16.6438 | 338.6059 | 266.2290 | 13.01387 | – |
| 2026 Apr 16 17:57 | 2026 Apr 12 13:04:56 | 17.9389 | 0.13158 | 16.6438 | 338.6059 | 266.2290 | 13.01387 | – |
| 2026 Apr 14 17:57 | 2026 Apr 12 13:04:56 | 17.9389 | 0.13158 | 16.6438 | 338.6059 | 266.2290 | 13.01387 | – |
| 2026 Apr 13 17:57 | 2026 Apr 12 13:04:56 | 17.9389 | 0.13158 | 16.6438 | 338.6059 | 266.2290 | 13.01387 | – |
| 2026 Apr 12 17:57 | 2026 Apr 07 20:12:26 | 17.9489 | 0.13205 | 18.2723 | 293.3278 | 266.2290 | 13.01387 | – |
| 2026 Apr 11 17:57 | 2026 Apr 07 20:12:26 | 17.9489 | 0.13205 | 18.2723 | 293.3278 | 266.2290 | 13.01387 | – |